sensor_id;sensor_type;location;lat;lon;timestamp;temperature;humidity
40368;DHT22;26075;43.320;21.920;2023-08-08T00:03:05;23.90;61.00
40368;DHT22;26075;43.320;21.920;2023-08-08T00:19:03;24.10;64.20
40368;DHT22;26075;43.320;21.920;2023-08-08T00:24:04;23.70;63.80
40368;DHT22;26075;43.320;21.920;2023-08-08T00:34:57;23.90;64.00
40368;DHT22;26075;43.320;21.920;2023-08-08T00:39:58;23.90;63.90
40368;DHT22;26075;43.320;21.920;2023-08-08T00:45:00;23.60;63.60
40368;DHT22;26075;43.320;21.920;2023-08-08T00:50:04;23.70;60.70
40368;DHT22;26075;43.320;21.920;2023-08-08T00:55:05;23.90;63.70
40368;DHT22;26075;43.320;21.920;2023-08-08T01:05:10;23.50;63.40
40368;DHT22;26075;43.320;21.920;2023-08-08T01:10:15;23.80;60.50
40368;DHT22;26075;43.320;21.920;2023-08-08T01:15:18;23.30;63.20
40368;DHT22;26075;43.320;21.920;2023-08-08T01:20:19;23.60;63.40
40368;DHT22;26075;43.320;21.920;2023-08-08T01:25:23;23.80;63.30
40368;DHT22;26075;43.320;21.920;2023-08-08T01:36:20;23.70;60.20
40368;DHT22;26075;43.320;21.920;2023-08-08T01:41:35;23.60;63.20
40368;DHT22;26075;43.320;21.920;2023-08-08T01:46:38;23.70;60.30
40368;DHT22;26075;43.320;21.920;2023-08-08T01:52:09;23.70;63.80
40368;DHT22;26075;43.320;21.920;2023-08-08T01:57:10;23.80;63.50
40368;DHT22;26075;43.320;21.920;2023-08-08T02:08:07;23.60;63.10
40368;DHT22;26075;43.320;21.920;2023-08-08T02:13:13;23.70;63.10
40368;DHT22;26075;43.320;21.920;2023-08-08T02:18:20;23.40;63.10
40368;DHT22;26075;43.320;21.920;2023-08-08T02:23:21;23.70;63.10
40368;DHT22;26075;43.320;21.920;2023-08-08T02:33:23;23.80;62.90
40368;DHT22;26075;43.320;21.920;2023-08-08T02:43:25;23.70;60.10
40368;DHT22;26075;43.320;21.920;2023-08-08T02:59:07;23.90;63.10
40368;DHT22;26075;43.320;21.920;2023-08-08T03:10:05;23.20;62.80
40368;DHT22;26075;43.320;21.920;2023-08-08T03:21:03;23.50;63.00
40368;DHT22;26075;43.320;21.920;2023-08-08T03:26:04;23.40;62.90
40368;DHT22;26075;43.320;21.920;2023-08-08T03:31:04;23.80;63.00
40368;DHT22;26075;43.320;21.920;2023-08-08T03:41:06;23.90;63.20
40368;DHT22;26075;43.320;21.920;2023-08-08T03:46:08;23.40;62.80
40368;DHT22;26075;43.320;21.920;2023-08-08T03:56:15;23.60;62.50
40368;DHT22;26075;43.320;21.920;2023-08-08T04:01:16;23.50;62.70
40368;DHT22;26075;43.320;21.920;2023-08-08T04:23:12;21.40;68.50
40368;DHT22;26075;43.320;21.920;2023-08-08T04:44:58;20.50;68.90
40368;DHT22;26075;43.320;21.920;2023-08-08T04:50:00;21.20;68.80
40368;DHT22;26075;43.320;21.920;2023-08-08T05:00:06;20.80;63.00
40368;DHT22;26075;43.320;21.920;2023-08-08T05:10:10;21.60;67.90
40368;DHT22;26075;43.320;21.920;2023-08-08T05:20:12;22.50;66.10
40368;DHT22;26075;43.320;21.920;2023-08-08T05:30:14;22.90;65.70
40368;DHT22;26075;43.320;21.920;2023-08-08T05:50:31;22.80;64.70
40368;DHT22;26075;43.320;21.920;2023-08-08T06:15:36;23.60;64.20
40368;DHT22;26075;43.320;21.920;2023-08-08T06:30:39;23.30;63.80
40368;DHT22;26075;43.320;21.920;2023-08-08T06:35:44;23.70;64.00
40368;DHT22;26075;43.320;21.920;2023-08-08T06:45:46;23.60;63.80
40368;DHT22;26075;43.320;21.920;2023-08-08T06:50:46;23.50;63.70
40368;DHT22;26075;43.320;21.920;2023-08-08T06:55:49;23.50;63.50
40368;DHT22;26075;43.320;21.920;2023-08-08T07:00:50;23.60;63.40
40368;DHT22;26075;43.320;21.920;2023-08-08T07:05:51;23.50;63.50
40368;DHT22;26075;43.320;21.920;2023-08-08T07:15:53;23.40;63.00
40368;DHT22;26075;43.320;21.920;2023-08-08T07:21:02;23.50;63.10
40368;DHT22;26075;43.320;21.920;2023-08-08T07:26:03;23.20;62.90
40368;DHT22;26075;43.320;21.920;2023-08-08T07:36:05;23.20;58.80
40368;DHT22;26075;43.320;21.920;2023-08-08T07:46:07;23.70;62.40
40368;DHT22;26075;43.320;21.920;2023-08-08T08:01:10;23.80;62.40
40368;DHT22;26075;43.320;21.920;2023-08-08T08:06:12;23.50;61.80
40368;DHT22;26075;43.320;21.920;2023-08-08T08:21:25;23.60;61.50
40368;DHT22;26075;43.320;21.920;2023-08-08T08:26:25;23.60;61.60
40368;DHT22;26075;43.320;21.920;2023-08-08T08:31:37;23.80;58.40
40368;DHT22;26075;43.320;21.920;2023-08-08T08:36:39;23.60;61.30
40368;DHT22;26075;43.320;21.920;2023-08-08T08:46:41;23.50;60.90
40368;DHT22;26075;43.320;21.920;2023-08-08T08:56:43;23.70;60.30
40368;DHT22;26075;43.320;21.920;2023-08-08T09:06:46;23.70;60.70
40368;DHT22;26075;43.320;21.920;2023-08-08T09:11:49;23.90;56.30
40368;DHT22;26075;43.320;21.920;2023-08-08T09:21:53;23.90;60.80
40368;DHT22;26075;43.320;21.920;2023-08-08T09:26:54;23.70;60.50
40368;DHT22;26075;43.320;21.920;2023-08-08T09:36:56;24.30;60.60
40368;DHT22;26075;43.320;21.920;2023-08-08T09:46:59;23.90;60.10
40368;DHT22;26075;43.320;21.920;2023-08-08T09:52:01;24.00;55.60
40368;DHT22;26075;43.320;21.920;2023-08-08T09:57:06;23.70;57.00
40368;DHT22;26075;43.320;21.920;2023-08-08T10:02:09;23.90;55.70
40368;DHT22;26075;43.320;21.920;2023-08-08T10:17:18;24.10;60.20
40368;DHT22;26075;43.320;21.920;2023-08-08T10:22:24;24.00;55.40
40368;DHT22;26075;43.320;21.920;2023-08-08T10:27:32;24.00;60.00
40368;DHT22;26075;43.320;21.920;2023-08-08T10:32:44;24.00;55.30
40368;DHT22;26075;43.320;21.920;2023-08-08T10:37:54;23.80;59.60
40368;DHT22;26075;43.320;21.920;2023-08-08T10:47:56;23.80;59.50
40368;DHT22;26075;43.320;21.920;2023-08-08T10:58:16;24.20;59.20
40368;DHT22;26075;43.320;21.920;2023-08-08T11:03:20;24.10;54.80
40368;DHT22;26075;43.320;21.920;2023-08-08T11:08:22;24.10;54.80
40368;DHT22;26075;43.320;21.920;2023-08-08T11:23:26;23.80;59.50
40368;DHT22;26075;43.320;21.920;2023-08-08T11:33:31;23.90;54.60
40368;DHT22;26075;43.320;21.920;2023-08-08T11:43:33;23.70;59.00
40368;DHT22;26075;43.320;21.920;2023-08-08T11:53:36;23.70;58.70
40368;DHT22;26075;43.320;21.920;2023-08-08T12:03:46;23.70;58.60
40368;DHT22;26075;43.320;21.920;2023-08-08T12:24:06;24.00;56.00
40368;DHT22;26075;43.320;21.920;2023-08-08T12:29:07;24.30;58.20
40368;DHT22;26075;43.320;21.920;2023-08-08T13:04:15;23.90;56.60
40368;DHT22;26075;43.320;21.920;2023-08-08T13:14:17;24.10;57.00
40368;DHT22;26075;43.320;21.920;2023-08-08T13:19:19;24.20;52.20
40368;DHT22;26075;43.320;21.920;2023-08-08T13:24:21;24.50;54.30
40368;DHT22;26075;43.320;21.920;2023-08-08T13:34:26;24.60;56.30
40368;DHT22;26075;43.320;21.920;2023-08-08T13:44:36;24.50;55.80
40368;DHT22;26075;43.320;21.920;2023-08-08T13:54:49;24.80;55.40
40368;DHT22;26075;43.320;21.920;2023-08-08T14:04:53;24.00;55.90
40368;DHT22;26075;43.320;21.920;2023-08-08T14:14:57;24.00;55.60
40368;DHT22;26075;43.320;21.920;2023-08-08T14:19:58;24.40;52.70
40368;DHT22;26075;43.320;21.920;2023-08-08T14:24:59;23.60;56.70
40368;DHT22;26075;43.320;21.920;2023-08-08T14:45:04;23.50;56.50
40368;DHT22;26075;43.320;21.920;2023-08-08T14:55:08;23.10;57.10
40368;DHT22;26075;43.320;21.920;2023-08-08T15:05:13;23.80;57.30
40368;DHT22;26075;43.320;21.920;2023-08-08T15:15:15;23.60;56.90
40368;DHT22;26075;43.320;21.920;2023-08-08T15:25:18;23.90;57.40
40368;DHT22;26075;43.320;21.920;2023-08-08T15:35:20;23.10;56.70
40368;DHT22;26075;43.320;21.920;2023-08-08T15:40:21;23.10;56.40
40368;DHT22;26075;43.320;21.920;2023-08-08T15:51:19;23.40;56.90
40368;DHT22;26075;43.320;21.920;2023-08-08T16:07:18;23.50;57.40
40368;DHT22;26075;43.320;21.920;2023-08-08T16:18:17;23.50;57.10
40368;DHT22;26075;43.320;21.920;2023-08-08T16:29:14;23.90;57.20
40368;DHT22;26075;43.320;21.920;2023-08-08T16:39:18;23.50;56.10
40368;DHT22;26075;43.320;21.920;2023-08-08T16:44:19;23.60;57.20
40368;DHT22;26075;43.320;21.920;2023-08-08T16:49:56;23.70;52.80
40368;DHT22;26075;43.320;21.920;2023-08-08T16:54:56;23.70;53.30
40368;DHT22;26075;43.320;21.920;2023-08-08T17:00:12;23.80;56.40
40368;DHT22;26075;43.320;21.920;2023-08-08T17:10:51;23.70;56.60
40368;DHT22;26075;43.320;21.920;2023-08-08T17:16:05;23.80;57.40
40368;DHT22;26075;43.320;21.920;2023-08-08T17:21:05;23.70;57.20
40368;DHT22;26075;43.320;21.920;2023-08-08T17:36:52;23.90;57.40
40368;DHT22;26075;43.320;21.920;2023-08-08T17:57:10;23.80;59.80
40368;DHT22;26075;43.320;21.920;2023-08-08T18:02:10;23.80;59.60
40368;DHT22;26075;43.320;21.920;2023-08-08T18:23:08;23.70;59.80
40368;DHT22;26075;43.320;21.920;2023-08-08T18:38:16;23.40;59.70
40368;DHT22;26075;43.320;21.920;2023-08-08T19:05:14;23.60;60.10
40368;DHT22;26075;43.320;21.920;2023-08-08T19:16:12;23.40;60.10
40368;DHT22;26075;43.320;21.920;2023-08-08T19:21:20;23.60;60.40
40368;DHT22;26075;43.320;21.920;2023-08-08T19:26:21;23.50;60.30
40368;DHT22;26075;43.320;21.920;2023-08-08T19:51:38;23.40;60.50
40368;DHT22;26075;43.320;21.920;2023-08-08T19:56:39;23.50;60.90
40368;DHT22;26075;43.320;21.920;2023-08-08T20:34:34;22.70;64.60
40368;DHT22;26075;43.320;21.920;2023-08-08T20:44:36;22.00;65.00
40368;DHT22;26075;43.320;21.920;2023-08-08T20:50:12;22.30;56.90
40368;DHT22;26075;43.320;21.920;2023-08-08T21:32:13;21.30;67.00
40368;DHT22;26075;43.320;21.920;2023-08-08T21:57:21;20.80;67.30
40368;DHT22;26075;43.320;21.920;2023-08-08T22:19:17;21.90;67.00
40368;DHT22;26075;43.320;21.920;2023-08-08T22:24:18;22.30;66.50
40368;DHT22;26075;43.320;21.920;2023-08-08T22:29:19;22.40;65.70
40368;DHT22;26075;43.320;21.920;2023-08-08T22:45:30;22.60;65.20
40368;DHT22;26075;43.320;21.920;2023-08-08T22:50:30;22.70;65.40
40368;DHT22;26075;43.320;21.920;2023-08-08T22:55:33;23.00;65.20
40368;DHT22;26075;43.320;21.920;2023-08-08T23:00:34;22.80;64.90
40368;DHT22;26075;43.320;21.920;2023-08-08T23:22:30;22.60;64.40
40368;DHT22;26075;43.320;21.920;2023-08-08T23:27:35;23.30;58.20
40368;DHT22;26075;43.320;21.920;2023-08-08T23:37:37;22.80;64.30
40368;DHT22;26075;43.320;21.920;2023-08-08T23:48:35;22.50;64.10
40368;DHT22;26075;43.320;21.920;2023-08-08T23:59:33;22.80;63.80
